الصفحة الرئيسية
METAR-TAF:

METAR-TAF

مطار :

مطار نينوي أكوينو الدولي

مانيلا, الفلبين

دائرة عرض: 14-31N, خط طول: 121-00E, ارتفاع: 14 متر

مراقبة الطقس الحالي

تاريخ ووقت الإصدار 26 دقيقة قبل الساعة 09:00UTC
ريح 2 عقدةمن اتجاهات متغيرة
درجة الحرارة 33°درجة مئوية
الرطوبة 59%
ضغط 1005 hPa
الرؤية 10 كم أو أكثر
غيوم قليلة على ارتفاع 2000 قدم, مزنة ركامية.
غيوم متفرقة على ارتفاع 2200 قدم

METAR: RPLL 200900Z VRB02KT 9999 FEW020CB SCT022 33/24 Q1005 NOSIG RMK A2968 CB S

زمن: 17:26 (09:26 UTC)

توقعات

تاريخ ووقت الإصدار 4ساعات و 26 دقيقة قبل الساعة 05:00UTC
التوقعات صالحة من20 الساعة 06 UTC إلى 21 الساعة 12 UTC
ريح 6 عقدة من الشرق/الجنوب الشرقي
الرؤية 10 كم أو أكثر
غيوم قليلة على ارتفاع 2500 قدم
مؤقت
من 20 الساعة 12 UTC إلى 20 الساعة 18 UTC
ريح 6 عقدةمن اتجاهات متغيرة
غيوم متفرقة على ارتفاع 2300 قدم, مزنة ركامية.
غيوم مفككة على ارتفاع 9000 قدم
عاصفة رعدية, مطر خفيف
مؤقت
من 21 الساعة 03 UTC إلى 21 الساعة 06 UTC
ريح 11 عقدة من الشرق/الجنوب الشرقي

TAF: RPLL 200500Z 2006/2112 12006KT 9999 FEW025 TX35/2006Z TN28/2021Z TEMPO 2012/2018 VRB06KT -TSRA SCT023CB BKN090 TEMPO 2103/2106 12011KT

أرصاد الطقس والتوقعات من أكثر من 4000 مطار (تقارير الطقس للمطار METAR والتنبؤ بالطقس بالمطارTAF).

المحطات المتاحة هي النقط الصفراء والحمراء على الخريطة.

حرك المؤشر فوق النقطة لمعرفة اسم المحطة.

ثم انقر لمعرفة أرصاد وتوقعات الطقس.

لتغيير الخارطة: اضغط على الأزرار الخضراء مع رمز الصليب الأسود للتكبير. على الزر الأخضر مع شرطة للتصغير، أو على الأسهم الخضراء للخرائط المجاورة.


METAR-TAF: